sensor_id;sensor_type;location;lat;lon;timestamp;temperature;humidity
12849;DHT22;6493;50.928;7.172;2023-08-06T00:02:06;13.00;67.00
12849;DHT22;6493;50.928;7.172;2023-08-06T00:07:11;13.00;67.00
12849;DHT22;6493;50.928;7.172;2023-08-06T00:12:14;13.00;67.00
12849;DHT22;6493;50.928;7.172;2023-08-06T00:17:18;12.90;66.80
12849;DHT22;6493;50.928;7.172;2023-08-06T00:22:23;13.00;67.00
12849;DHT22;6493;50.928;7.172;2023-08-06T00:27:27;12.90;67.00
12849;DHT22;6493;50.928;7.172;2023-08-06T00:32:30;12.90;67.10
12849;DHT22;6493;50.928;7.172;2023-08-06T00:37:36;12.90;67.10
12849;DHT22;6493;50.928;7.172;2023-08-06T00:42:40;12.80;67.30
12849;DHT22;6493;50.928;7.172;2023-08-06T00:47:43;12.80;67.30
12849;DHT22;6493;50.928;7.172;2023-08-06T00:52:49;12.80;67.40
12849;DHT22;6493;50.928;7.172;2023-08-06T00:57:53;12.80;67.40
12849;DHT22;6493;50.928;7.172;2023-08-06T01:02:58;12.70;67.30
12849;DHT22;6493;50.928;7.172;2023-08-06T01:08:15;12.60;67.40
12849;DHT22;6493;50.928;7.172;2023-08-06T01:13:28;12.60;67.70
12849;DHT22;6493;50.928;7.172;2023-08-06T01:18:35;12.60;67.60
12849;DHT22;6493;50.928;7.172;2023-08-06T01:23:43;12.60;67.60
12849;DHT22;6493;50.928;7.172;2023-08-06T01:28:52;12.60;67.80
12849;DHT22;6493;50.928;7.172;2023-08-06T01:34:01;12.50;67.90
12849;DHT22;6493;50.928;7.172;2023-08-06T01:39:07;12.50;67.90
12849;DHT22;6493;50.928;7.172;2023-08-06T01:44:11;12.50;68.00
12849;DHT22;6493;50.928;7.172;2023-08-06T01:49:14;12.50;67.90
12849;DHT22;6493;50.928;7.172;2023-08-06T01:54:19;12.50;67.90
12849;DHT22;6493;50.928;7.172;2023-08-06T01:59:23;12.50;67.90
12849;DHT22;6493;50.928;7.172;2023-08-06T02:04:27;12.50;68.00
12849;DHT22;6493;50.928;7.172;2023-08-06T02:09:32;12.50;68.00
12849;DHT22;6493;50.928;7.172;2023-08-06T02:14:37;12.50;68.10
12849;DHT22;6493;50.928;7.172;2023-08-06T02:19:41;12.50;68.00
12849;DHT22;6493;50.928;7.172;2023-08-06T02:24:46;12.50;68.10
12849;DHT22;6493;50.928;7.172;2023-08-06T02:29:52;12.40;68.10
12849;DHT22;6493;50.928;7.172;2023-08-06T02:34:56;12.50;68.20
12849;DHT22;6493;50.928;7.172;2023-08-06T02:40:01;12.40;68.10
12849;DHT22;6493;50.928;7.172;2023-08-06T02:45:05;12.50;68.20
12849;DHT22;6493;50.928;7.172;2023-08-06T02:50:09;12.50;68.30
12849;DHT22;6493;50.928;7.172;2023-08-06T02:55:14;12.50;68.30
12849;DHT22;6493;50.928;7.172;2023-08-06T03:00:21;12.50;68.30
12849;DHT22;6493;50.928;7.172;2023-08-06T03:05:25;12.50;68.40
12849;DHT22;6493;50.928;7.172;2023-08-06T03:10:30;12.40;68.20
12849;DHT22;6493;50.928;7.172;2023-08-06T03:15:37;12.40;68.30
12849;DHT22;6493;50.928;7.172;2023-08-06T03:20:44;12.50;68.50
12849;DHT22;6493;50.928;7.172;2023-08-06T03:25:50;12.40;68.40
12849;DHT22;6493;50.928;7.172;2023-08-06T03:30:59;12.40;68.40
12849;DHT22;6493;50.928;7.172;2023-08-06T03:36:08;12.40;68.50
12849;DHT22;6493;50.928;7.172;2023-08-06T03:41:13;12.40;68.40
12849;DHT22;6493;50.928;7.172;2023-08-06T03:46:17;12.30;68.60
12849;DHT22;6493;50.928;7.172;2023-08-06T03:51:21;12.30;68.50
12849;DHT22;6493;50.928;7.172;2023-08-06T03:56:26;12.30;68.70
12849;DHT22;6493;50.928;7.172;2023-08-06T04:01:30;12.20;68.60
12849;DHT22;6493;50.928;7.172;2023-08-06T04:06:34;12.20;68.60
12849;DHT22;6493;50.928;7.172;2023-08-06T04:11:39;12.20;68.70
12849;DHT22;6493;50.928;7.172;2023-08-06T04:16:44;12.20;68.80
12849;DHT22;6493;50.928;7.172;2023-08-06T04:21:47;12.20;68.80
12849;DHT22;6493;50.928;7.172;2023-08-06T04:26:53;12.10;68.90
12849;DHT22;6493;50.928;7.172;2023-08-06T04:31:57;12.10;68.90
12849;DHT22;6493;50.928;7.172;2023-08-06T04:37:02;12.10;69.00
12849;DHT22;6493;50.928;7.172;2023-08-06T04:42:07;12.20;69.10
12849;DHT22;6493;50.928;7.172;2023-08-06T04:47:11;12.10;69.10
12849;DHT22;6493;50.928;7.172;2023-08-06T04:52:16;12.10;69.10
12849;DHT22;6493;50.928;7.172;2023-08-06T04:57:21;12.10;69.20
12849;DHT22;6493;50.928;7.172;2023-08-06T05:02:25;12.10;69.20
12849;DHT22;6493;50.928;7.172;2023-08-06T05:07:28;12.10;69.30
12849;DHT22;6493;50.928;7.172;2023-08-06T05:12:33;12.10;69.30
12849;DHT22;6493;50.928;7.172;2023-08-06T05:17:37;12.10;69.50
12849;DHT22;6493;50.928;7.172;2023-08-06T05:22:40;12.10;69.50
12849;DHT22;6493;50.928;7.172;2023-08-06T05:27:45;12.10;69.50
12849;DHT22;6493;50.928;7.172;2023-08-06T05:32:49;12.10;69.60
12849;DHT22;6493;50.928;7.172;2023-08-06T05:37:53;12.20;69.80
12849;DHT22;6493;50.928;7.172;2023-08-06T05:42:58;12.20;69.80
12849;DHT22;6493;50.928;7.172;2023-08-06T05:48:01;12.20;70.00
12849;DHT22;6493;50.928;7.172;2023-08-06T05:53:05;12.20;70.20
12849;DHT22;6493;50.928;7.172;2023-08-06T05:58:10;12.30;70.30
12849;DHT22;6493;50.928;7.172;2023-08-06T06:03:14;12.30;70.30
12849;DHT22;6493;50.928;7.172;2023-08-06T06:08:17;12.30;70.30
12849;DHT22;6493;50.928;7.172;2023-08-06T06:13:22;12.40;70.50
12849;DHT22;6493;50.928;7.172;2023-08-06T06:18:26;12.50;71.40
12849;DHT22;6493;50.928;7.172;2023-08-06T06:23:30;12.50;70.50
12849;DHT22;6493;50.928;7.172;2023-08-06T06:28:35;12.60;70.50
12849;DHT22;6493;50.928;7.172;2023-08-06T06:33:38;12.50;70.40
12849;DHT22;6493;50.928;7.172;2023-08-06T06:38:42;12.50;70.40
12849;DHT22;6493;50.928;7.172;2023-08-06T06:43:47;12.60;70.60
12849;DHT22;6493;50.928;7.172;2023-08-06T06:48:50;12.60;70.80
12849;DHT22;6493;50.928;7.172;2023-08-06T06:53:54;12.60;70.70
12849;DHT22;6493;50.928;7.172;2023-08-06T06:58:59;12.70;70.90
12849;DHT22;6493;50.928;7.172;2023-08-06T07:04:03;12.70;70.90
12849;DHT22;6493;50.928;7.172;2023-08-06T07:09:07;12.70;70.90
12849;DHT22;6493;50.928;7.172;2023-08-06T07:14:12;12.70;70.90
12849;DHT22;6493;50.928;7.172;2023-08-06T07:19:16;12.70;70.90
12849;DHT22;6493;50.928;7.172;2023-08-06T07:24:20;12.70;70.80
12849;DHT22;6493;50.928;7.172;2023-08-06T07:29:25;12.70;70.80
12849;DHT22;6493;50.928;7.172;2023-08-06T07:34:29;12.70;70.90
12849;DHT22;6493;50.928;7.172;2023-08-06T07:39:32;12.70;70.90
12849;DHT22;6493;50.928;7.172;2023-08-06T07:44:37;12.60;70.90
12849;DHT22;6493;50.928;7.172;2023-08-06T07:49:42;12.70;71.10
12849;DHT22;6493;50.928;7.172;2023-08-06T07:54:46;12.70;71.30
12849;DHT22;6493;50.928;7.172;2023-08-06T07:59:51;12.70;71.20
12849;DHT22;6493;50.928;7.172;2023-08-06T08:04:55;12.70;71.30
12849;DHT22;6493;50.928;7.172;2023-08-06T08:09:59;12.70;71.20
12849;DHT22;6493;50.928;7.172;2023-08-06T08:15:05;12.70;71.20
12849;DHT22;6493;50.928;7.172;2023-08-06T08:20:09;12.70;71.30
12849;DHT22;6493;50.928;7.172;2023-08-06T08:25:13;12.70;71.40
12849;DHT22;6493;50.928;7.172;2023-08-06T08:30:18;12.80;71.50
12849;DHT22;6493;50.928;7.172;2023-08-06T08:35:22;12.70;71.50
12849;DHT22;6493;50.928;7.172;2023-08-06T08:40:29;12.70;71.50
12849;DHT22;6493;50.928;7.172;2023-08-06T08:45:39;12.70;72.30
12849;DHT22;6493;50.928;7.172;2023-08-06T08:50:44;12.80;71.80
12849;DHT22;6493;50.928;7.172;2023-08-06T08:55:49;12.80;71.90
12849;DHT22;6493;50.928;7.172;2023-08-06T09:00:54;12.80;71.90
12849;DHT22;6493;50.928;7.172;2023-08-06T09:05:59;12.90;72.20
12849;DHT22;6493;50.928;7.172;2023-08-06T09:11:05;12.90;72.20
12849;DHT22;6493;50.928;7.172;2023-08-06T09:16:10;13.00;72.30
12849;DHT22;6493;50.928;7.172;2023-08-06T09:21:14;13.10;72.30
12849;DHT22;6493;50.928;7.172;2023-08-06T09:26:18;13.10;72.40
12849;DHT22;6493;50.928;7.172;2023-08-06T09:31:23;13.20;72.90
12849;DHT22;6493;50.928;7.172;2023-08-06T09:36:27;13.40;73.50
12849;DHT22;6493;50.928;7.172;2023-08-06T09:41:31;13.50;73.30
12849;DHT22;6493;50.928;7.172;2023-08-06T09:46:36;13.60;73.30
12849;DHT22;6493;50.928;7.172;2023-08-06T09:51:40;13.70;73.10
12849;DHT22;6493;50.928;7.172;2023-08-06T09:56:44;13.80;73.10
12849;DHT22;6493;50.928;7.172;2023-08-06T10:01:49;13.90;73.50
12849;DHT22;6493;50.928;7.172;2023-08-06T10:06:52;14.10;73.90
12849;DHT22;6493;50.928;7.172;2023-08-06T10:11:58;14.20;74.10
12849;DHT22;6493;50.928;7.172;2023-08-06T10:17:05;14.40;73.80
12849;DHT22;6493;50.928;7.172;2023-08-06T10:22:11;14.40;73.10
12849;DHT22;6493;50.928;7.172;2023-08-06T10:27:20;14.30;72.50
12849;DHT22;6493;50.928;7.172;2023-08-06T10:32:47;14.30;72.40
12849;DHT22;6493;50.928;7.172;2023-08-06T10:37:51;14.20;72.60
12849;DHT22;6493;50.928;7.172;2023-08-06T10:42:55;14.10;72.00
12849;DHT22;6493;50.928;7.172;2023-08-06T10:48:00;13.90;71.50
12849;DHT22;6493;50.928;7.172;2023-08-06T10:53:04;13.70;71.30
12849;DHT22;6493;50.928;7.172;2023-08-06T10:58:09;13.50;71.00
12849;DHT22;6493;50.928;7.172;2023-08-06T11:03:14;13.30;70.90
12849;DHT22;6493;50.928;7.172;2023-08-06T11:08:25;13.10;70.80
12849;DHT22;6493;50.928;7.172;2023-08-06T11:13:28;12.90;70.80
12849;DHT22;6493;50.928;7.172;2023-08-06T11:18:35;12.70;70.60
12849;DHT22;6493;50.928;7.172;2023-08-06T11:23:40;12.50;70.70
12849;DHT22;6493;50.928;7.172;2023-08-06T11:28:43;12.40;70.80
12849;DHT22;6493;50.928;7.172;2023-08-06T11:33:50;12.20;70.80
12849;DHT22;6493;50.928;7.172;2023-08-06T11:38:53;12.20;71.10
12849;DHT22;6493;50.928;7.172;2023-08-06T11:43:57;12.10;71.20
12849;DHT22;6493;50.928;7.172;2023-08-06T11:49:02;12.00;71.20
12849;DHT22;6493;50.928;7.172;2023-08-06T11:54:06;11.90;71.40
12849;DHT22;6493;50.928;7.172;2023-08-06T11:59:10;11.90;71.50
12849;DHT22;6493;50.928;7.172;2023-08-06T12:04:15;11.80;71.60
12849;DHT22;6493;50.928;7.172;2023-08-06T12:09:19;11.80;71.80
12849;DHT22;6493;50.928;7.172;2023-08-06T12:14:23;11.90;72.00
12849;DHT22;6493;50.928;7.172;2023-08-06T12:19:28;11.90;72.20
12849;DHT22;6493;50.928;7.172;2023-08-06T12:24:32;11.90;72.20
12849;DHT22;6493;50.928;7.172;2023-08-06T12:29:37;11.90;72.10
12849;DHT22;6493;50.928;7.172;2023-08-06T12:34:42;12.00;72.20
12849;DHT22;6493;50.928;7.172;2023-08-06T12:39:54;12.00;72.20
12849;DHT22;6493;50.928;7.172;2023-08-06T12:44:58;12.00;72.20
12849;DHT22;6493;50.928;7.172;2023-08-06T12:50:04;12.00;72.20
12849;DHT22;6493;50.928;7.172;2023-08-06T12:55:10;12.10;72.30
12849;DHT22;6493;50.928;7.172;2023-08-06T13:00:14;12.10;72.30
12849;DHT22;6493;50.928;7.172;2023-08-06T13:05:19;12.10;72.40
12849;DHT22;6493;50.928;7.172;2023-08-06T13:10:23;12.20;72.60
12849;DHT22;6493;50.928;7.172;2023-08-06T13:15:27;12.20;72.70
12849;DHT22;6493;50.928;7.172;2023-08-06T13:20:32;12.30;73.40
12849;DHT22;6493;50.928;7.172;2023-08-06T13:25:35;12.40;72.90
12849;DHT22;6493;50.928;7.172;2023-08-06T13:30:41;12.30;72.80
12849;DHT22;6493;50.928;7.172;2023-08-06T13:35:46;12.40;72.80
12849;DHT22;6493;50.928;7.172;2023-08-06T13:40:50;12.40;72.80
12849;DHT22;6493;50.928;7.172;2023-08-06T13:45:53;12.50;73.00
12849;DHT22;6493;50.928;7.172;2023-08-06T13:50:58;12.50;73.10
12849;DHT22;6493;50.928;7.172;2023-08-06T13:56:02;12.60;73.20
12849;DHT22;6493;50.928;7.172;2023-08-06T14:01:06;12.60;73.00
12849;DHT22;6493;50.928;7.172;2023-08-06T14:06:11;12.70;72.90
12849;DHT22;6493;50.928;7.172;2023-08-06T14:11:15;12.70;72.70
12849;DHT22;6493;50.928;7.172;2023-08-06T14:16:18;12.60;72.40
12849;DHT22;6493;50.928;7.172;2023-08-06T14:21:23;12.60;72.40
12849;DHT22;6493;50.928;7.172;2023-08-06T14:26:27;12.60;72.50
12849;DHT22;6493;50.928;7.172;2023-08-06T14:31:31;12.50;72.50
12849;DHT22;6493;50.928;7.172;2023-08-06T14:37:00;12.50;72.70
12849;DHT22;6493;50.928;7.172;2023-08-06T14:42:05;12.50;73.10
12849;DHT22;6493;50.928;7.172;2023-08-06T14:47:08;12.50;72.80
12849;DHT22;6493;50.928;7.172;2023-08-06T14:52:14;12.50;72.70
12849;DHT22;6493;50.928;7.172;2023-08-06T14:57:17;12.40;72.50
12849;DHT22;6493;50.928;7.172;2023-08-06T15:02:21;12.40;72.50
12849;DHT22;6493;50.928;7.172;2023-08-06T15:07:26;12.30;72.50
12849;DHT22;6493;50.928;7.172;2023-08-06T15:12:31;12.30;72.60
12849;DHT22;6493;50.928;7.172;2023-08-06T15:17:35;12.20;72.60
12849;DHT22;6493;50.928;7.172;2023-08-06T15:22:40;12.20;72.70
12849;DHT22;6493;50.928;7.172;2023-08-06T15:27:44;12.20;72.90
12849;DHT22;6493;50.928;7.172;2023-08-06T15:32:47;12.30;73.10
12849;DHT22;6493;50.928;7.172;2023-08-06T15:37:52;12.30;73.30
12849;DHT22;6493;50.928;7.172;2023-08-06T15:42:56;12.40;73.60
12849;DHT22;6493;50.928;7.172;2023-08-06T15:48:00;12.40;73.40
12849;DHT22;6493;50.928;7.172;2023-08-06T15:53:05;12.40;73.30
12849;DHT22;6493;50.928;7.172;2023-08-06T15:58:08;12.50;73.20
12849;DHT22;6493;50.928;7.172;2023-08-06T16:03:12;12.40;72.90
12849;DHT22;6493;50.928;7.172;2023-08-06T16:08:17;12.40;72.90
12849;DHT22;6493;50.928;7.172;2023-08-06T16:13:21;12.40;73.10
12849;DHT22;6493;50.928;7.172;2023-08-06T16:18:24;12.40;73.10
12849;DHT22;6493;50.928;7.172;2023-08-06T16:23:29;12.40;73.30
12849;DHT22;6493;50.928;7.172;2023-08-06T16:28:33;12.40;73.40
12849;DHT22;6493;50.928;7.172;2023-08-06T16:33:37;12.50;73.30
12849;DHT22;6493;50.928;7.172;2023-08-06T16:38:42;12.50;73.40
12849;DHT22;6493;50.928;7.172;2023-08-06T16:43:45;12.40;73.20
12849;DHT22;6493;50.928;7.172;2023-08-06T16:48:49;12.40;73.10
12849;DHT22;6493;50.928;7.172;2023-08-06T16:53:54;12.40;73.10
12849;DHT22;6493;50.928;7.172;2023-08-06T16:58:59;12.40;73.00
12849;DHT22;6493;50.928;7.172;2023-08-06T17:04:03;12.30;72.80
12849;DHT22;6493;50.928;7.172;2023-08-06T17:09:08;12.30;73.00
12849;DHT22;6493;50.928;7.172;2023-08-06T17:14:12;12.30;73.10
12849;DHT22;6493;50.928;7.172;2023-08-06T17:19:15;12.20;73.00
12849;DHT22;6493;50.928;7.172;2023-08-06T17:24:21;12.20;73.10
12849;DHT22;6493;50.928;7.172;2023-08-06T17:29:25;12.10;73.00
12849;DHT22;6493;50.928;7.172;2023-08-06T17:34:29;12.10;73.00
12849;DHT22;6493;50.928;7.172;2023-08-06T17:39:34;12.10;73.10
12849;DHT22;6493;50.928;7.172;2023-08-06T17:44:38;12.00;73.10
12849;DHT22;6493;50.928;7.172;2023-08-06T17:49:42;12.00;73.00
12849;DHT22;6493;50.928;7.172;2023-08-06T17:54:47;12.00;73.10
12849;DHT22;6493;50.928;7.172;2023-08-06T17:59:51;12.00;73.10
12849;DHT22;6493;50.928;7.172;2023-08-06T18:04:54;12.00;73.10
12849;DHT22;6493;50.928;7.172;2023-08-06T18:09:59;12.00;73.10
12849;DHT22;6493;50.928;7.172;2023-08-06T18:15:04;11.90;73.00
12849;DHT22;6493;50.928;7.172;2023-08-06T18:20:08;11.90;73.00
12849;DHT22;6493;50.928;7.172;2023-08-06T18:25:13;11.90;73.10
12849;DHT22;6493;50.928;7.172;2023-08-06T18:30:17;11.80;73.10
12849;DHT22;6493;50.928;7.172;2023-08-06T18:35:21;11.80;73.10
12849;DHT22;6493;50.928;7.172;2023-08-06T18:40:27;11.70;73.20
12849;DHT22;6493;50.928;7.172;2023-08-06T18:45:31;11.70;73.10
12849;DHT22;6493;50.928;7.172;2023-08-06T18:50:42;11.60;73.20
12849;DHT22;6493;50.928;7.172;2023-08-06T18:55:49;11.60;73.30
12849;DHT22;6493;50.928;7.172;2023-08-06T19:00:56;11.50;73.30
12849;DHT22;6493;50.928;7.172;2023-08-06T19:06:01;11.50;73.40
12849;DHT22;6493;50.928;7.172;2023-08-06T19:11:08;11.40;73.20
12849;DHT22;6493;50.928;7.172;2023-08-06T19:16:12;11.30;73.10
12849;DHT22;6493;50.928;7.172;2023-08-06T19:21:15;11.30;73.10
12849;DHT22;6493;50.928;7.172;2023-08-06T19:26:20;11.30;73.20
12849;DHT22;6493;50.928;7.172;2023-08-06T19:31:24;11.20;73.00
12849;DHT22;6493;50.928;7.172;2023-08-06T19:36:30;11.20;73.10
12849;DHT22;6493;50.928;7.172;2023-08-06T19:41:35;11.10;73.10
12849;DHT22;6493;50.928;7.172;2023-08-06T19:46:38;11.10;73.10
12849;DHT22;6493;50.928;7.172;2023-08-06T19:51:42;11.10;73.20
12849;DHT22;6493;50.928;7.172;2023-08-06T19:56:47;11.00;73.10
12849;DHT22;6493;50.928;7.172;2023-08-06T20:01:50;11.00;73.00
12849;DHT22;6493;50.928;7.172;2023-08-06T20:06:55;10.90;73.00
12849;DHT22;6493;50.928;7.172;2023-08-06T20:12:00;10.90;73.00
12849;DHT22;6493;50.928;7.172;2023-08-06T20:17:05;10.90;73.10
12849;DHT22;6493;50.928;7.172;2023-08-06T20:22:09;10.90;73.10
12849;DHT22;6493;50.928;7.172;2023-08-06T20:27:14;10.80;73.00
12849;DHT22;6493;50.928;7.172;2023-08-06T20:32:18;10.80;73.00
12849;DHT22;6493;50.928;7.172;2023-08-06T20:37:22;10.80;73.10
12849;DHT22;6493;50.928;7.172;2023-08-06T20:42:27;10.80;73.20
12849;DHT22;6493;50.928;7.172;2023-08-06T20:47:31;10.70;73.20
12849;DHT22;6493;50.928;7.172;2023-08-06T20:52:35;10.70;73.20
12849;DHT22;6493;50.928;7.172;2023-08-06T20:57:40;10.70;73.20
12849;DHT22;6493;50.928;7.172;2023-08-06T21:02:44;10.70;73.40
12849;DHT22;6493;50.928;7.172;2023-08-06T21:07:47;10.70;73.30
12849;DHT22;6493;50.928;7.172;2023-08-06T21:12:52;10.60;73.10
12849;DHT22;6493;50.928;7.172;2023-08-06T21:17:56;10.60;73.20
12849;DHT22;6493;50.928;7.172;2023-08-06T21:23:00;10.70;73.30
12849;DHT22;6493;50.928;7.172;2023-08-06T21:28:26;10.60;73.20
12849;DHT22;6493;50.928;7.172;2023-08-06T21:33:31;10.60;74.00
12849;DHT22;6493;50.928;7.172;2023-08-06T21:38:37;10.60;73.30
12849;DHT22;6493;50.928;7.172;2023-08-06T21:43:44;10.60;73.30
12849;DHT22;6493;50.928;7.172;2023-08-06T21:48:49;10.60;73.30
12849;DHT22;6493;50.928;7.172;2023-08-06T21:53:52;10.50;73.30
12849;DHT22;6493;50.928;7.172;2023-08-06T21:58:59;10.50;73.30
12849;DHT22;6493;50.928;7.172;2023-08-06T22:04:03;10.50;73.30
12849;DHT22;6493;50.928;7.172;2023-08-06T22:09:07;10.50;74.00
12849;DHT22;6493;50.928;7.172;2023-08-06T22:14:12;10.50;73.40
12849;DHT22;6493;50.928;7.172;2023-08-06T22:19:16;10.40;73.30
12849;DHT22;6493;50.928;7.172;2023-08-06T22:24:19;10.40;73.30
12849;DHT22;6493;50.928;7.172;2023-08-06T22:29:24;10.40;73.40
12849;DHT22;6493;50.928;7.172;2023-08-06T22:34:28;10.30;73.40
12849;DHT22;6493;50.928;7.172;2023-08-06T22:39:32;10.30;73.20
12849;DHT22;6493;50.928;7.172;2023-08-06T22:44:37;10.40;73.40
12849;DHT22;6493;50.928;7.172;2023-08-06T22:49:40;10.30;73.30
12849;DHT22;6493;50.928;7.172;2023-08-06T22:54:45;10.30;73.30
12849;DHT22;6493;50.928;7.172;2023-08-06T23:00:12;10.30;73.30
12849;DHT22;6493;50.928;7.172;2023-08-06T23:05:15;10.20;73.30
12849;DHT22;6493;50.928;7.172;2023-08-06T23:10:19;10.10;73.20
12849;DHT22;6493;50.928;7.172;2023-08-06T23:15:26;10.10;73.20
12849;DHT22;6493;50.928;7.172;2023-08-06T23:20:30;10.10;73.40
12849;DHT22;6493;50.928;7.172;2023-08-06T23:25:34;10.10;73.40
12849;DHT22;6493;50.928;7.172;2023-08-06T23:30:39;10.10;73.40
12849;DHT22;6493;50.928;7.172;2023-08-06T23:35:46;10.10;73.50
12849;DHT22;6493;50.928;7.172;2023-08-06T23:40:50;10.10;73.50
12849;DHT22;6493;50.928;7.172;2023-08-06T23:45:55;10.10;73.50
12849;DHT22;6493;50.928;7.172;2023-08-06T23:51:01;10.10;73.50
12849;DHT22;6493;50.928;7.172;2023-08-06T23:56:04;10.00;73.40
